Time;durP1;ratioP1;P1;durP2;ratioP2;P2;SDS_P1;SDS_P2;PMS_P1;PMS_P2;Temp;Humidity;BMP_temperature;BMP_pressure;BME280_temperature;BME280_humidity;BME280_pressure;Samples;Min_cycle;Max_cycle;Signal;HPM_P1;HPM_P2
2022/06/11 00:00:05;;;;;;;1.10;0.70;;;13.20;99.90;;;;;;5072272;28;20189;-78
2022/06/11 00:02:36;;;;;;;0.95;0.70;;;13.30;99.90;;;;;;5072575;28;20205;-78
2022/06/11 00:05:09;;;;;;;1.63;0.55;;;13.40;99.90;;;;;;5071378;28;20228;-78
2022/06/11 00:07:41;;;;;;;2.58;0.98;;;13.40;99.90;;;;;;5072822;28;20193;-76
2022/06/11 00:10:12;;;;;;;1.85;0.93;;;13.50;99.90;;;;;;5071982;28;20595;-77
2022/06/11 00:12:43;;;;;;;2.10;0.85;;;13.50;99.90;;;;;;5072066;28;20216;-81
2022/06/11 00:15:14;;;;;;;1.40;0.80;;;13.60;99.90;;;;;;5070864;28;20586;-77
2022/06/11 00:17:45;;;;;;;1.45;0.77;;;13.70;99.90;;;;;;5072562;28;20193;-77
2022/06/11 00:20:18;;;;;;;2.40;0.60;;;13.80;99.90;;;;;;5071529;28;20193;-77
2022/06/11 00:22:49;;;;;;;1.58;0.47;;;13.90;99.90;;;;;;5069169;28;20186;-77
2022/06/11 00:25:19;;;;;;;0.85;0.40;;;13.90;99.90;;;;;;5071773;28;20185;-76
2022/06/11 00:27:50;;;;;;;1.67;0.50;;;14.00;99.90;;;;;;5069207;28;20664;-78
2022/06/11 00:30:22;;;;;;;0.50;0.50;;;14.10;99.90;;;;;;5068300;28;20555;-79
2022/06/11 00:32:56;;;;;;;1.83;0.68;;;14.10;99.90;;;;;;5069200;28;20713;-75
2022/06/11 00:35:29;;;;;;;0.93;0.50;;;14.30;99.90;;;;;;5068846;28;20235;-78
2022/06/11 00:38:00;;;;;;;1.67;0.73;;;14.30;99.90;;;;;;5071570;28;20568;-77
2022/06/11 00:40:33;;;;;;;0.93;0.50;;;14.40;99.90;;;;;;5072303;28;20231;-77
2022/06/11 00:43:03;;;;;;;0.50;0.50;;;14.40;99.90;;;;;;5071580;28;20908;-77
2022/06/11 00:45:36;;;;;;;0.38;0.38;;;14.50;99.90;;;;;;5071271;28;20189;-77
2022/06/11 00:48:12;;;;;;;0.57;0.50;;;14.50;99.90;;;;;;5071653;28;20189;-77
2022/06/11 00:50:47;;;;;;;0.95;0.55;;;14.60;99.90;;;;;;5071201;28;20252;-79
2022/06/11 00:53:24;;;;;;;1.65;0.50;;;14.70;99.90;;;;;;5071304;28;20683;-77
2022/06/11 00:55:54;;;;;;;0.50;0.50;;;14.80;99.90;;;;;;5069580;28;20185;-77
2022/06/11 00:58:28;;;;;;;0.60;0.50;;;14.80;99.90;;;;;;5068981;28;20242;-77
2022/06/11 01:01:01;;;;;;;0.38;0.38;;;15.00;99.90;;;;;;5071540;28;20200;-75
2022/06/11 01:03:35;;;;;;;0.85;0.30;;;15.10;99.90;;;;;;5071676;28;20217;-79
2022/06/11 01:06:17;;;;;;;0.30;0.30;;;15.10;99.90;;;;;;5072026;28;20231;-79
2022/06/11 01:09:00;;;;;;;2.13;0.50;;;15.20;99.90;;;;;;5072677;28;20185;-79
2022/06/11 01:11:49;;;;;;;0.50;0.50;;;15.20;99.90;;;;;;5073282;28;20220;-78
2022/06/11 01:14:35;;;;;;;0.65;0.50;;;15.40;99.90;;;;;;5075537;28;20235;-80
2022/06/11 01:17:15;;;;;;;1.80;0.60;;;15.50;99.90;;;;;;5074721;28;20217;-78
2022/06/11 01:20:13;;;;;;;2.10;0.73;;;15.60;99.90;;;;;;5075174;28;20637;-78
2022/06/11 01:23:19;;;;;;;0.70;0.60;;;15.60;99.90;;;;;;5075218;28;20274;-78
2022/06/11 01:26:01;;;;;;;0.60;0.45;;;15.50;99.90;;;;;;5072333;28;20197;-76
2022/06/11 01:28:50;;;;;;;0.30;0.30;;;15.50;99.90;;;;;;5073008;28;20268;-76
2022/06/11 01:31:28;;;;;;;1.02;0.40;;;15.60;99.90;;;;;;5071571;28;20185;-77
2022/06/11 01:34:13;;;;;;;0.50;0.40;;;15.60;99.90;;;;;;5074380;28;20679;-78
2022/06/11 01:36:46;;;;;;;1.65;0.40;;;15.60;99.90;;;;;;5075136;28;20189;-79
2022/06/11 01:39:22;;;;;;;1.05;0.40;;;15.70;99.90;;;;;;5074923;28;20196;-76
2022/06/11 01:42:01;;;;;;;0.55;0.40;;;15.70;99.90;;;;;;5072656;28;20185;-77
2022/06/11 01:44:37;;;;;;;1.25;0.70;;;15.70;99.90;;;;;;5072438;28;20200;-77
2022/06/11 01:47:10;;;;;;;0.40;0.40;;;15.90;99.90;;;;;;5074905;28;20220;-75
2022/06/11 01:49:45;;;;;;;2.30;0.50;;;16.00;99.90;;;;;;5074768;28;20211;-77
2022/06/11 01:52:36;;;;;;;0.60;0.40;;;16.00;99.90;;;;;;5073875;28;20223;-77
2022/06/11 01:55:15;;;;;;;1.08;0.30;;;16.10;99.90;;;;;;5074459;28;20185;-78
2022/06/11 01:58:01;;;;;;;1.77;0.43;;;16.20;99.90;;;;;;5074920;28;20185;-77
2022/06/11 02:00:34;;;;;;;0.90;0.45;;;16.30;99.90;;;;;;5072513;28;20242;-78
2022/06/11 02:03:28;;;;;;;0.68;0.40;;;16.30;99.90;;;;;;5073760;28;20252;-78
2022/06/11 02:06:25;;;;;;;0.30;0.30;;;16.50;99.90;;;;;;5072935;28;20228;-77
2022/06/11 02:09:08;;;;;;;1.08;0.57;;;16.50;99.90;;;;;;5071872;28;20189;-76
2022/06/11 02:11:43;;;;;;;0.40;0.40;;;16.60;99.90;;;;;;5073431;28;20617;-76
2022/06/11 02:14:20;;;;;;;0.60;0.40;;;16.70;99.90;;;;;;5074576;28;20219;-77
2022/06/11 02:16:54;;;;;;;0.47;0.40;;;16.70;99.90;;;;;;5071691;28;20185;-77
2022/06/11 02:19:34;;;;;;;0.68;0.40;;;16.70;99.90;;;;;;5071080;28;20636;-78
2022/06/11 02:22:08;;;;;;;0.57;0.40;;;16.80;99.90;;;;;;5073663;28;20204;-76
2022/06/11 02:24:42;;;;;;;0.98;0.40;;;16.90;99.90;;;;;;5073568;28;20185;-79
2022/06/11 02:27:29;;;;;;;0.45;0.30;;;16.90;99.90;;;;;;5072528;28;20188;-77
2022/06/11 02:30:00;;;;;;;1.05;0.40;;;17.00;99.90;;;;;;5072455;28;20197;-79
2022/06/11 02:32:33;;;;;;;1.27;0.28;;;16.90;99.90;;;;;;5073854;28;20211;-80
2022/06/11 02:35:16;;;;;;;0.30;0.30;;;16.90;99.90;;;;;;5073800;28;20276;-75
2022/06/11 02:37:48;;;;;;;0.70;0.32;;;16.90;99.90;;;;;;5073115;28;20532;-78
2022/06/11 02:40:31;;;;;;;0.40;0.20;;;16.80;99.90;;;;;;5073722;28;20196;-76
2022/06/11 02:43:02;;;;;;;1.38;0.38;;;16.80;99.90;;;;;;5072197;28;20199;-78
2022/06/11 02:45:33;;;;;;;0.52;0.30;;;16.80;99.90;;;;;;5073492;28;20185;-77
2022/06/11 02:48:03;;;;;;;0.73;0.40;;;16.90;99.90;;;;;;5072847;28;20197;-77
2022/06/11 02:50:37;;;;;;;1.77;0.28;;;16.90;99.90;;;;;;5073314;28;20195;-77
2022/06/11 02:53:10;;;;;;;0.77;0.30;;;16.90;99.90;;;;;;5074136;28;20220;-77
2022/06/11 02:55:42;;;;;;;0.45;0.40;;;17.00;99.90;;;;;;5073136;28;20188;-78
2022/06/11 02:58:13;;;;;;;1.13;0.38;;;17.10;99.90;;;;;;5073369;28;20606;-78
2022/06/11 03:00:49;;;;;;;0.95;0.35;;;17.10;99.90;;;;;;5073296;28;20201;-76
2022/06/11 03:03:21;;;;;;;0.65;0.30;;;17.10;99.90;;;;;;5072962;28;20228;-76
2022/06/11 03:13:35;;;;;;;0.80;0.40;;;17.10;99.90;;;;;;5066359;28;20263;-76
2022/06/11 03:19:49;;;;;;;0.50;0.32;;;17.30;99.90;;;;;;5070934;28;20618;-78
2022/06/11 03:29:04;;;;;;;1.42;0.40;;;17.20;99.90;;;;;;4973336;28;20212;-76
2022/06/11 03:42:29;;;;;;;0.52;0.30;;;17.20;99.90;;;;;;4910234;29;20691;-75
2022/06/11 03:45:36;;;;;;;0.28;0.25;;;17.10;99.90;;;;;;4914034;29;20190;-76
2022/06/11 03:49:02;;;;;;;0.63;0.40;;;17.20;99.90;;;;;;4972913;28;20211;-75
2022/06/11 03:59:16;;;;;;;1.48;0.35;;;17.20;99.90;;;;;;4990546;28;20663;-76
2022/06/11 04:05:08;;;;;;;1.23;0.30;;;17.30;99.90;;;;;;5010729;28;20289;-76
2022/06/11 04:08:29;;;;;;;0.85;0.28;;;17.20;99.90;;;;;;5011667;28;20197;-76
2022/06/11 04:12:05;;;;;;;0.63;0.32;;;17.20;99.90;;;;;;5009986;28;20645;-76
2022/06/11 04:22:05;;;;;;;1.05;0.50;;;16.90;99.90;;;;;;5009962;28;20206;-78
2022/06/11 04:25:21;;;;;;;1.25;0.35;;;16.90;99.90;;;;;;5011632;28;20202;-77
2022/06/11 04:35:04;;;;;;;0.70;0.40;;;16.60;99.90;;;;;;5050839;28;20657;-77
2022/06/11 04:38:02;;;;;;;1.27;0.28;;;16.50;99.90;;;;;;5050958;28;20201;-77
2022/06/11 04:40:40;;;;;;;1.92;0.20;;;16.50;99.90;;;;;;5050572;28;20267;-76
2022/06/11 05:00:32;;;;;;;0.45;0.40;;;16.80;99.90;;;;;;4998106;28;20182;-75
2022/06/11 05:06:03;;;;;;;1.90;0.50;;;16.80;99.90;;;;;;5005691;28;20597;-77
2022/06/11 05:09:15;;;;;;;1.73;0.50;;;16.70;99.90;;;;;;5015400;28;20222;-76
2022/06/11 05:12:47;;;;;;;1.17;0.30;;;16.70;99.90;;;;;;4949601;28;20211;-75
2022/06/11 05:23:10;;;;;;;1.02;0.43;;;16.70;99.90;;;;;;4978688;28;20653;-77
2022/06/11 05:26:18;;;;;;;0.98;0.40;;;16.60;99.90;;;;;;4962277;28;20207;-76
2022/06/11 05:36:16;;;;;;;1.75;0.47;;;16.50;99.90;;;;;;4958755;29;20290;-76
2022/06/11 07:16:32;;;;;;;1.48;0.80;;;14.20;99.90;;;;;;4901549;29;20197;-75
2022/06/11 07:19:07;;;;;;;1.77;0.80;;;14.10;99.90;;;;;;4945570;29;20236;-76
2022/06/11 07:21:41;;;;;;;1.40;0.77;;;14.10;99.90;;;;;;4954185;29;20219;-77
2022/06/11 07:24:16;;;;;;;1.92;0.82;;;14.00;99.90;;;;;;4953765;29;20271;-77
2022/06/11 07:26:54;;;;;;;1.13;0.70;;;13.90;99.90;;;;;;4953854;29;20197;-77
2022/06/11 07:29:28;;;;;;;1.73;0.88;;;13.90;99.90;;;;;;4954521;28;20644;-76
2022/06/11 07:32:03;;;;;;;1.83;0.80;;;13.90;99.90;;;;;;5010736;28;20257;-76
2022/06/11 07:34:34;;;;;;;1.00;0.60;;;13.90;99.90;;;;;;5011646;28;20326;-78
2022/06/11 07:37:05;;;;;;;0.70;0.57;;;13.90;99.90;;;;;;5011800;28;20262;-75
2022/06/11 07:39:36;;;;;;;1.88;0.68;;;13.90;99.90;;;;;;5011679;28;20187;-74
2022/06/11 07:42:10;;;;;;;1.75;0.60;;;13.80;99.90;;;;;;5011707;28;20202;-75
2022/06/11 07:44:41;;;;;;;2.30;0.70;;;13.70;99.90;;;;;;5025229;28;20281;-77
2022/06/11 07:47:12;;;;;;;1.00;0.60;;;13.70;99.90;;;;;;5010447;28;20226;-79
2022/06/11 07:49:42;;;;;;;1.65;0.80;;;13.60;99.90;;;;;;5008341;28;20194;-77
2022/06/11 07:52:13;;;;;;;2.20;0.80;;;13.60;99.90;;;;;;5006812;28;20195;-79
2022/06/11 07:54:44;;;;;;;2.35;0.70;;;13.50;99.90;;;;;;5011180;28;21015;-77
2022/06/11 07:57:16;;;;;;;1.50;0.70;;;13.40;99.90;;;;;;5006832;28;20191;-78
2022/06/11 07:59:47;;;;;;;2.15;0.80;;;13.40;99.90;;;;;;5028054;28;20675;-79
2022/06/11 08:02:17;;;;;;;0.98;0.68;;;13.30;99.90;;;;;;5053080;28;20201;-77
2022/06/11 08:04:48;;;;;;;1.23;0.70;;;13.30;99.90;;;;;;5052391;28;20217;-78
2022/06/11 08:07:19;;;;;;;1.00;0.73;;;13.20;99.90;;;;;;5052908;28;20182;-77
2022/06/11 08:09:50;;;;;;;1.52;0.70;;;13.20;99.90;;;;;;5050277;28;20331;-76
2022/06/11 08:12:22;;;;;;;1.05;0.80;;;13.10;99.90;;;;;;5053210;28;20190;-77
2022/06/11 08:14:56;;;;;;;2.75;0.82;;;13.10;99.90;;;;;;5050655;28;20217;-76
2022/06/11 08:17:27;;;;;;;2.30;0.80;;;13.10;99.90;;;;;;5052807;28;20558;-76
2022/06/11 08:19:58;;;;;;;1.92;0.98;;;13.10;99.90;;;;;;5053046;28;20669;-77
2022/06/11 08:22:29;;;;;;;3.22;0.85;;;13.10;99.90;;;;;;5052642;28;20186;-77
2022/06/11 08:24:59;;;;;;;1.45;0.68;;;13.00;99.90;;;;;;5052364;28;20197;-77
2022/06/11 08:27:32;;;;;;;1.75;0.70;;;13.00;99.90;;;;;;5053020;28;20625;-78
2022/06/11 08:30:02;;;;;;;1.35;0.82;;;12.90;99.90;;;;;;5051867;28;20185;-78
2022/06/11 08:32:33;;;;;;;1.58;0.90;;;12.90;99.90;;;;;;5052539;28;20190;-78
2022/06/11 08:35:04;;;;;;;1.33;0.80;;;12.90;99.90;;;;;;5052635;28;20228;-79
2022/06/11 08:37:34;;;;;;;1.10;0.70;;;12.80;99.90;;;;;;5052573;28;20196;-77
2022/06/11 08:40:06;;;;;;;2.67;0.90;;;12.80;99.90;;;;;;5052981;28;20205;-76
2022/06/11 08:42:42;;;;;;;1.90;0.95;;;12.80;99.90;;;;;;5052319;28;20186;-78
2022/06/11 08:45:21;;;;;;;2.42;0.73;;;12.70;99.90;;;;;;5051231;28;20189;-76
2022/06/11 08:47:54;;;;;;;1.40;0.77;;;12.70;99.90;;;;;;5069611;28;20185;-77
2022/06/11 08:50:32;;;;;;;2.47;0.95;;;12.70;99.90;;;;;;5071823;28;20199;-76
2022/06/11 08:53:04;;;;;;;5.15;1.10;;;12.60;99.90;;;;;;5057216;28;20189;-76
2022/06/11 08:55:38;;;;;;;1.88;1.00;;;12.60;99.90;;;;;;5064912;28;20254;-76
2022/06/11 08:58:21;;;;;;;3.20;1.10;;;12.60;99.90;;;;;;5071466;28;20180;-75
2022/06/11 09:00:58;;;;;;;1.30;0.90;;;12.50;99.90;;;;;;5066429;28;20182;-76
2022/06/11 09:03:42;;;;;;;1.85;1.00;;;12.50;99.90;;;;;;5068682;28;20224;-77
2022/06/11 09:06:45;;;;;;;2.40;1.08;;;12.40;99.90;;;;;;5069554;28;20264;-76
2022/06/11 09:09:22;;;;;;;2.38;1.00;;;12.40;99.90;;;;;;5065104;28;20562;-78
2022/06/11 09:12:07;;;;;;;2.25;1.02;;;12.40;99.90;;;;;;5061507;28;20181;-77
2022/06/11 09:15:02;;;;;;;2.78;0.90;;;12.40;99.90;;;;;;5062609;28;20209;-76
2022/06/11 09:17:57;;;;;;;2.42;0.93;;;12.30;99.90;;;;;;5062526;28;20189;-76
2022/06/11 09:20:40;;;;;;;2.88;1.20;;;12.20;99.90;;;;;;5071005;28;20185;-76
2022/06/11 09:23:43;;;;;;;2.05;0.98;;;12.30;99.90;;;;;;5062991;28;20242;-76
2022/06/11 09:26:36;;;;;;;1.52;0.85;;;12.20;99.90;;;;;;5058162;28;20205;-77
2022/06/11 09:29:15;;;;;;;1.48;0.90;;;12.30;99.90;;;;;;5067831;28;20247;-76
2022/06/11 09:31:53;;;;;;;1.92;1.00;;;12.20;99.90;;;;;;5068025;28;20190;-78
2022/06/11 09:34:31;;;;;;;3.83;1.10;;;12.10;99.90;;;;;;5070609;28;20731;-77
2022/06/11 09:37:11;;;;;;;3.25;0.90;;;12.10;99.90;;;;;;5073648;28;20189;-76
2022/06/11 09:39:45;;;;;;;3.42;0.98;;;12.10;99.90;;;;;;5075080;28;20666;-77
2022/06/11 09:42:37;;;;;;;2.20;0.90;;;12.10;99.90;;;;;;5073514;28;20239;-77
2022/06/11 09:45:14;;;;;;;2.30;1.00;;;12.00;99.90;;;;;;5074251;28;20193;-76
2022/06/11 09:47:56;;;;;;;3.50;0.90;;;12.00;99.90;;;;;;5075503;28;20201;-80
2022/06/11 09:50:31;;;;;;;2.10;1.00;;;12.10;99.90;;;;;;5071768;28;20658;-77
2022/06/11 09:53:22;;;;;;;3.72;0.95;;;12.00;99.90;;;;;;5073961;28;20200;-76
2022/06/11 09:55:59;;;;;;;3.28;1.15;;;12.00;99.90;;;;;;5071283;28;20185;-76
2022/06/11 09:58:37;;;;;;;3.53;0.90;;;12.00;99.90;;;;;;5070472;28;20249;-79
2022/06/11 10:01:13;;;;;;;3.47;0.80;;;11.90;99.90;;;;;;5073895;28;20201;-77
2022/06/11 10:03:51;;;;;;;2.55;0.90;;;11.90;99.90;;;;;;5073167;28;20591;-78
2022/06/11 10:06:25;;;;;;;4.15;0.77;;;12.00;99.90;;;;;;5070676;28;20188;-77
2022/06/11 10:08:58;;;;;;;3.05;0.80;;;11.90;99.90;;;;;;5071433;28;20184;-77
2022/06/11 10:11:34;;;;;;;2.97;0.90;;;11.90;99.90;;;;;;5070970;28;20189;-77
2022/06/11 10:16:56;;;;;;;2.67;0.80;;;11.80;99.90;;;;;;5070327;28;20274;-77
2022/06/11 10:19:35;;;;;;;1.58;0.70;;;11.90;99.90;;;;;;5071097;28;20639;-77
2022/06/11 10:22:14;;;;;;;2.33;0.70;;;11.80;99.90;;;;;;5073468;28;21416;-77
2022/06/11 10:24:59;;;;;;;3.83;0.80;;;11.80;99.90;;;;;;5074219;28;20193;-80
2022/06/11 10:27:33;;;;;;;1.67;0.60;;;11.70;99.90;;;;;;5071284;28;20193;-79
2022/06/11 10:30:14;;;;;;;2.33;0.90;;;11.70;99.90;;;;;;5073968;28;20276;-78
2022/06/11 10:32:50;;;;;;;1.98;0.80;;;11.70;99.90;;;;;;5073112;28;20204;-78
2022/06/11 10:35:27;;;;;;;2.78;0.80;;;11.70;99.90;;;;;;5073202;28;20224;-77
2022/06/11 10:38:06;;;;;;;3.83;0.88;;;11.60;99.90;;;;;;5071331;28;20599;-77
2022/06/11 10:40:42;;;;;;;3.03;0.80;;;11.60;99.90;;;;;;5072808;28;20216;-76
2022/06/11 10:43:20;;;;;;;3.47;0.80;;;11.60;99.90;;;;;;5072924;28;20196;-77
2022/06/11 10:45:51;;;;;;;3.45;0.80;;;11.60;99.90;;;;;;5070244;28;20230;-76
2022/06/11 10:48:24;;;;;;;1.85;0.77;;;11.50;99.90;;;;;;5073389;28;20648;-77
2022/06/11 10:50:57;;;;;;;3.60;1.00;;;11.50;99.90;;;;;;5072133;28;20201;-77
2022/06/11 10:53:33;;;;;;;4.45;0.82;;;11.50;99.90;;;;;;5070173;28;20181;-77
2022/06/11 10:56:06;;;;;;;1.90;0.80;;;11.50;99.90;;;;;;5073440;28;20194;-78
2022/06/11 10:58:42;;;;;;;2.70;0.80;;;11.50;99.90;;;;;;5073079;28;20189;-77
2022/06/11 11:01:17;;;;;;;2.95;0.70;;;11.50;99.90;;;;;;5073152;28;20552;-79
2022/06/11 11:03:51;;;;;;;3.47;0.95;;;11.40;99.90;;;;;;5072962;28;20216;-77
2022/06/11 11:06:29;;;;;;;3.65;0.90;;;11.40;99.90;;;;;;5073488;28;20181;-78
2022/06/11 11:09:01;;;;;;;2.25;0.70;;;11.30;99.90;;;;;;5071425;28;20193;-78
2022/06/11 11:11:40;;;;;;;1.90;0.80;;;11.30;99.90;;;;;;5073336;28;20618;-78
2022/06/11 11:14:17;;;;;;;2.03;0.80;;;11.20;99.90;;;;;;5072391;28;20204;-81
2022/06/11 11:16:49;;;;;;;3.80;0.95;;;11.30;99.90;;;;;;5074218;28;20185;-77
2022/06/11 11:19:24;;;;;;;1.20;0.60;;;11.20;99.90;;;;;;5072510;28;20235;-77
2022/06/11 11:22:00;;;;;;;1.60;0.65;;;11.30;99.90;;;;;;5070622;28;20588;-77
2022/06/11 11:24:34;;;;;;;4.00;1.08;;;11.30;99.90;;;;;;5072467;28;20188;-77
2022/06/11 11:27:09;;;;;;;2.30;0.77;;;11.20;99.90;;;;;;5072617;28;20188;-77
2022/06/11 11:29:42;;;;;;;3.22;0.73;;;11.20;99.90;;;;;;5072513;28;20224;-79
2022/06/11 11:32:31;;;;;;;4.78;0.98;;;11.20;99.90;;;;;;5072194;28;20213;-79
2022/06/11 11:35:18;;;;;;;2.15;0.80;;;11.10;99.90;;;;;;5070945;28;20225;-83
2022/06/11 11:38:01;;;;;;;2.15;0.80;;;11.10;99.90;;;;;;5072400;28;20189;-81
2022/06/11 11:40:35;;;;;;;3.15;1.00;;;11.10;99.90;;;;;;5070107;28;20189;-79
2022/06/11 11:43:11;;;;;;;2.33;1.02;;;11.10;99.90;;;;;;5072413;28;20205;-79
2022/06/11 11:45:47;;;;;;;4.00;1.00;;;11.00;99.90;;;;;;5072402;28;20582;-79
2022/06/11 11:48:24;;;;;;;1.88;0.82;;;11.00;99.90;;;;;;5071598;28;20193;-77
2022/06/11 11:50:58;;;;;;;2.20;1.10;;;11.00;99.90;;;;;;5067786;28;20193;-79
2022/06/11 11:53:33;;;;;;;4.88;1.25;;;10.90;99.90;;;;;;5058708;28;20200;-78
2022/06/11 11:56:05;;;;;;;4.40;1.33;;;10.90;99.90;;;;;;5064022;28;20219;-78
2022/06/11 11:58:38;;;;;;;4.55;1.20;;;10.90;99.90;;;;;;5072346;28;20189;-77
2022/06/11 12:01:11;;;;;;;4.07;1.10;;;10.90;99.90;;;;;;5071540;28;20194;-77
2022/06/11 12:03:43;;;;;;;5.20;1.60;;;10.80;99.90;;;;;;5071934;28;20282;-78
2022/06/11 12:06:17;;;;;;;3.83;1.17;;;10.80;99.90;;;;;;5071918;28;20185;-78
2022/06/11 12:08:54;;;;;;;3.28;1.30;;;10.80;99.90;;;;;;5071774;28;20195;-78
2022/06/11 12:11:37;;;;;;;3.00;0.90;;;10.80;99.90;;;;;;5068738;28;20238;-78
2022/06/11 12:14:16;;;;;;;2.40;0.80;;;10.70;99.90;;;;;;5064374;28;20189;-78
2022/06/11 12:16:55;;;;;;;3.65;0.98;;;10.70;99.90;;;;;;5073507;28;20199;-79
2022/06/11 12:19:31;;;;;;;3.75;1.33;;;10.70;99.90;;;;;;5053196;28;20201;-78
2022/06/11 12:22:06;;;;;;;2.38;1.08;;;10.70;99.90;;;;;;5053086;28;20189;-78
2022/06/11 12:24:43;;;;;;;3.47;1.17;;;10.60;99.90;;;;;;5053263;28;20189;-78
2022/06/11 12:27:18;;;;;;;3.28;1.10;;;10.60;99.90;;;;;;5053089;28;20531;-78
2022/06/11 12:29:53;;;;;;;2.00;1.00;;;10.60;99.90;;;;;;5059885;28;20191;-78
2022/06/11 12:32:26;;;;;;;2.70;1.20;;;10.60;99.90;;;;;;5072388;28;20188;-79
2022/06/11 12:34:58;;;;;;;2.38;1.02;;;10.50;99.90;;;;;;5073002;28;20576;-78
2022/06/11 12:37:39;;;;;;;2.92;1.35;;;10.50;99.90;;;;;;5073138;28;20185;-78
2022/06/11 12:40:23;;;;;;;4.88;1.25;;;10.50;99.90;;;;;;5073040;28;20189;-78
2022/06/11 12:43:06;;;;;;;5.65;1.38;;;10.40;99.90;;;;;;5072906;28;20189;-78
2022/06/11 12:45:43;;;;;;;2.67;0.90;;;10.40;99.90;;;;;;5070422;28;20188;-78
2022/06/11 12:48:38;;;;;;;2.95;1.30;;;10.40;99.90;;;;;;5052907;28;20192;-78
2022/06/11 12:51:16;;;;;;;7.60;1.48;;;10.40;99.90;;;;;;5052351;28;20267;-78
2022/06/11 12:54:00;;;;;;;3.55;1.42;;;10.30;99.90;;;;;;5052763;28;20193;-78
2022/06/11 12:57:14;;;;;;;3.20;1.35;;;10.30;99.90;;;;;;5052796;28;20708;-78
2022/06/11 13:00:01;;;;;;;3.60;1.50;;;10.30;99.90;;;;;;5052917;28;20185;-79
2022/06/11 13:06:03;;;;;;;4.15;1.67;;;10.20;99.90;;;;;;5036726;28;20293;-78
2022/06/11 13:08:44;;;;;;;2.95;1.33;;;10.20;99.90;;;;;;5054395;28;20204;-78
2022/06/11 13:11:25;;;;;;;6.63;1.52;;;10.10;99.90;;;;;;5054113;28;20200;-77
2022/06/11 13:14:28;;;;;;;2.92;1.55;;;10.10;99.90;;;;;;5056342;28;20694;-80
2022/06/11 13:17:06;;;;;;;2.63;1.23;;;10.10;99.90;;;;;;5056608;28;20205;-78
2022/06/11 13:19:42;;;;;;;6.03;1.67;;;10.10;99.90;;;;;;5056296;28;20193;-78
2022/06/11 13:22:31;;;;;;;3.00;1.40;;;10.00;99.90;;;;;;5049130;28;20198;-78
2022/06/11 13:25:09;;;;;;;3.67;1.20;;;10.00;99.90;;;;;;5036412;28;20194;-78
2022/06/11 13:28:02;;;;;;;3.15;1.20;;;10.00;99.90;;;;;;5036505;28;20202;-78
2022/06/11 13:30:49;;;;;;;3.47;1.35;;;10.00;99.90;;;;;;5036418;28;20202;-78
2022/06/11 13:33:48;;;;;;;3.70;1.25;;;10.00;99.90;;;;;;5036347;28;20191;-78
2022/06/11 13:36:29;;;;;;;3.40;1.48;;;9.90;99.90;;;;;;5036360;28;20692;-79
2022/06/11 13:39:11;;;;;;;4.03;1.60;;;9.90;99.90;;;;;;5036406;28;20281;-78
2022/06/11 13:41:54;;;;;;;4.40;1.52;;;9.90;99.90;;;;;;5036612;28;20245;-78
2022/06/11 13:44:42;;;;;;;5.65;1.45;;;9.90;99.90;;;;;;5036140;28;20688;-79
2022/06/11 13:47:36;;;;;;;6.50;1.45;;;9.90;99.90;;;;;;5051478;28;20754;-77
2022/06/11 13:50:27;;;;;;;3.85;1.70;;;9.80;99.90;;;;;;5056286;28;20199;-78
2022/06/11 13:55:55;;;;;;;3.85;1.50;;;9.80;99.90;;;;;;5056217;28;20303;-77
2022/06/11 13:58:50;;;;;;;5.43;1.60;;;9.80;99.90;;;;;;5060894;28;20192;-78
2022/06/11 14:01:39;;;;;;;4.18;1.40;;;9.80;99.90;;;;;;5075791;28;20196;-77
2022/06/11 14:04:30;;;;;;;4.05;1.30;;;9.80;99.90;;;;;;5075377;28;20212;-77
2022/06/11 14:07:04;;;;;;;5.30;1.50;;;9.80;99.90;;;;;;5075773;28;20197;-78
2022/06/11 14:12:46;;;;;;;3.88;1.25;;;9.80;99.90;;;;;;5076165;28;20255;-77
2022/06/11 14:15:31;;;;;;;5.70;1.42;;;9.80;99.90;;;;;;5074723;28;20266;-77
2022/06/11 14:18:23;;;;;;;4.07;1.30;;;9.90;99.90;;;;;;5075449;28;20189;-76
2022/06/11 14:20:58;;;;;;;2.13;1.27;;;9.90;99.90;;;;;;5075511;28;20197;-77
2022/06/11 14:23:52;;;;;;;3.97;1.35;;;9.90;99.90;;;;;;5075428;28;20200;-79
2022/06/11 14:26:53;;;;;;;3.80;1.20;;;9.90;99.90;;;;;;5075500;28;20233;-77
2022/06/11 14:29:31;;;;;;;4.03;1.30;;;9.90;99.90;;;;;;5075536;28;20242;-77
2022/06/11 14:32:28;;;;;;;5.05;1.20;;;9.90;99.90;;;;;;5075318;28;20188;-77
2022/06/11 14:35:15;;;;;;;3.65;1.20;;;9.80;99.90;;;;;;5075254;28;20193;-77
2022/06/11 14:37:48;;;;;;;5.30;1.45;;;9.80;99.90;;;;;;5075510;28;20534;-78
2022/06/11 14:40:35;;;;;;;3.05;1.10;;;9.80;99.90;;;;;;5075212;28;20189;-77
2022/06/11 14:43:10;;;;;;;4.55;1.38;;;9.70;99.90;;;;;;5074989;28;20198;-77
2022/06/11 14:45:54;;;;;;;3.05;1.23;;;9.70;99.90;;;;;;5074721;28;20229;-77
2022/06/11 14:48:41;;;;;;;2.25;1.00;;;9.70;99.90;;;;;;5075388;28;20780;-77
2022/06/11 14:51:20;;;;;;;3.47;1.27;;;9.70;99.90;;;;;;5058966;28;20240;-77
2022/06/11 14:54:24;;;;;;;5.88;1.35;;;9.70;99.90;;;;;;5074874;28;20558;-77
2022/06/11 14:57:18;;;;;;;4.40;1.20;;;9.70;99.90;;;;;;5074686;28;20213;-77
2022/06/11 15:00:19;;;;;;;2.67;1.13;;;9.80;99.90;;;;;;5074740;28;20189;-77
2022/06/11 15:03:16;;;;;;;2.70;1.10;;;9.70;99.90;;;;;;5074225;28;20557;-77
2022/06/11 15:06:03;;;;;;;3.08;1.00;;;9.80;99.90;;;;;;5074875;28;20212;-78
2022/06/11 15:08:58;;;;;;;4.35;1.00;;;9.80;99.90;;;;;;5074629;28;20189;-77
2022/06/11 15:11:48;;;;;;;3.33;1.15;;;9.80;99.90;;;;;;5074534;28;20201;-78
2022/06/11 15:14:46;;;;;;;3.70;1.00;;;9.80;99.90;;;;;;5074436;28;20193;-78
2022/06/11 15:17:23;;;;;;;4.00;1.08;;;9.80;99.90;;;;;;5074871;28;20315;-77
2022/06/11 15:20:07;;;;;;;2.15;1.00;;;9.80;99.90;;;;;;5074223;28;20189;-78
2022/06/11 15:22:47;;;;;;;3.17;0.90;;;9.70;99.90;;;;;;5074316;28;20246;-78
2022/06/11 15:25:21;;;;;;;5.00;1.00;;;9.70;99.90;;;;;;5074226;28;20196;-77
2022/06/11 15:27:55;;;;;;;2.05;0.80;;;9.70;99.90;;;;;;5074413;28;20572;-76
2022/06/11 15:30:32;;;;;;;3.28;1.00;;;9.70;99.90;;;;;;5074091;28;20195;-77
2022/06/11 15:33:22;;;;;;;4.03;1.00;;;9.60;99.90;;;;;;5065945;28;20207;-78
2022/06/11 15:36:06;;;;;;;1.75;0.93;;;9.60;99.90;;;;;;5074062;28;20236;-77
2022/06/11 15:38:44;;;;;;;2.50;1.00;;;9.60;99.90;;;;;;5074048;28;20235;-78
2022/06/11 15:41:23;;;;;;;2.20;1.10;;;9.60;99.90;;;;;;5067536;28;20189;-77
2022/06/11 15:43:58;;;;;;;4.07;1.00;;;9.60;99.90;;;;;;5073723;28;20193;-78
2022/06/11 15:46:32;;;;;;;5.38;1.20;;;9.60;99.90;;;;;;5073865;28;20316;-77
2022/06/11 15:49:04;;;;;;;3.25;1.00;;;9.60;99.90;;;;;;5073995;28;20556;-78
2022/06/11 15:51:35;;;;;;;4.00;1.23;;;9.60;99.90;;;;;;5073884;28;20197;-78
2022/06/11 15:57:23;;;;;;;2.75;1.02;;;9.50;99.90;;;;;;5067451;28;20274;-77
2022/06/11 16:00:06;;;;;;;4.25;1.00;;;9.50;99.90;;;;;;5065736;28;20246;-78
2022/06/11 16:02:37;;;;;;;3.35;1.00;;;9.50;99.90;;;;;;5058365;28;20581;-78
2022/06/11 16:05:08;;;;;;;4.90;1.42;;;9.50;99.90;;;;;;5060029;28;20197;-78
2022/06/11 16:07:57;;;;;;;5.22;1.20;;;9.40;99.90;;;;;;5054229;28;20201;-77
2022/06/11 16:10:29;;;;;;;3.33;1.13;;;9.40;99.90;;;;;;5073591;28;20208;-78
2022/06/11 16:13:00;;;;;;;2.50;1.00;;;9.40;99.90;;;;;;5073363;28;20556;-77
2022/06/11 16:15:35;;;;;;;1.75;0.93;;;9.30;99.90;;;;;;5073442;28;20568;-76
2022/06/11 16:18:17;;;;;;;3.28;1.02;;;9.30;99.90;;;;;;5073271;28;20192;-77
2022/06/11 16:20:57;;;;;;;3.03;0.88;;;9.50;99.90;;;;;;5064687;28;20189;-76
2022/06/11 16:23:32;;;;;;;3.15;1.05;;;9.60;99.90;;;;;;5053214;28;20204;-77
2022/06/11 16:26:04;;;;;;;4.75;0.90;;;9.80;99.90;;;;;;5053359;28;20640;-78
2022/06/11 16:28:40;;;;;;;4.72;0.90;;;9.70;99.90;;;;;;5055221;28;20182;-77
2022/06/11 16:31:24;;;;;;;2.95;0.77;;;9.80;99.90;;;;;;5064408;28;20220;-77
2022/06/11 16:33:57;;;;;;;4.63;0.80;;;9.80;99.90;;;;;;5059130;28;20271;-78
2022/06/11 16:36:32;;;;;;;2.42;0.80;;;9.80;99.90;;;;;;5056021;28;20244;-79
2022/06/11 16:39:03;;;;;;;3.72;0.88;;;9.80;99.90;;;;;;5070353;28;20631;-78
2022/06/11 16:44:27;;;;;;;4.13;0.80;;;9.80;99.90;;;;;;5047599;28;20740;-77
2022/06/11 16:47:02;;;;;;;6.00;0.90;;;9.80;99.90;;;;;;5050762;28;20703;-76
2022/06/11 16:58:07;;;;;;;2.35;0.80;;;10.10;99.90;;;;;;5051431;28;20243;-77
2022/06/11 17:00:41;;;;;;;2.50;0.93;;;10.20;99.90;;;;;;5053007;28;20201;-78
2022/06/11 17:03:15;;;;;;;4.28;0.80;;;10.20;99.90;;;;;;5051739;28;20706;-78
2022/06/11 17:05:48;;;;;;;4.85;1.20;;;10.20;99.90;;;;;;5067558;28;20189;-77
2022/06/11 17:08:21;;;;;;;2.85;0.60;;;10.30;99.90;;;;;;5057135;28;20259;-77
2022/06/11 17:11:04;;;;;;;1.95;0.60;;;10.30;99.90;;;;;;5059358;28;20193;-77
2022/06/11 17:13:50;;;;;;;4.72;0.98;;;10.40;99.90;;;;;;5057215;28;20276;-78
2022/06/11 17:16:34;;;;;;;3.42;0.90;;;10.40;99.90;;;;;;5032934;28;20327;-77
2022/06/11 17:19:09;;;;;;;2.63;0.63;;;10.40;99.90;;;;;;5050386;28;20189;-78
2022/06/11 17:21:42;;;;;;;6.28;0.95;;;10.30;99.90;;;;;;5063949;28;20568;-78
2022/06/11 17:24:23;;;;;;;2.33;0.75;;;10.40;99.90;;;;;;5061038;28;20193;-77